Etusivu
METAR-TAF:

METAR-TAF

Lentoasemat :

Vidsel, Ruotsi

Leveyspiiri: 65-52N, Pituuspiiri: 020-08E, korkeus merenpinnasta: 180 m

Tämänhetkinen sää

Tämä raportti tehtiin 39 minuuttia sitten, kello 03.50 UTC
Tuuli 5 kn etelästä/lounaasta, vaihdellen etelän ja lännen/lounaan välillä
Lämpötila 7°C
Kosteus 81%
Ilmanpaine 992 hPa
Näkyvyys 10 km tai enemmän
heikkoa tihkusadetta

METAR: ESPE 260350Z AUTO 21005KT 180V250 9999 -DZ FEW043/// 07/04 Q0992

Aika: 06:29 (04:29 UTC)

Sääennuste

Tämä raportti tehtiin 16 tuntia ja 59 minuuttia sitten, kello 11.30 UTC
Ennuste voimassa 25. päivästä klo 12 UTC - 25. päivään klo 15 UTC
Tuuli 8 kn lännestä/lounaasta
Näkyvyys 10 km tai enemmän
Muutamia pilviä 3000 ft:n korkeudessa
Tulossa
25. päivästä klo 12 UTC - 25. päivään klo 15 UTC
Tuuli 12 kn lännestä puuskistuen 22 kn:hen

TAF: ESPE 251130Z 2512/2515 24008KT 9999 FEW030 BECMG 2512/2515 26012G22KT RMK MIL

Säähavainnot ja -ennusteet yli 4000 lentoasemalta (METAR- ja TAF-raportit).

Käytössä olevat sääasemat on merkitty karttaan keltaisilla ja punaisilla pisteillä.

Aseta hiiri pisteen päälle nähdäksesi sääaseman nimen.

Klikkaa sitten nähdäksesi säähavainnot ja -ennusteet.

Kartan vaihtaminen: klikkaa mustalla rastilla varustettuja vihreitä pisteitä, niin voit zoomata sisään; viivalla varustettua vihreää pistettä, niin voit zoomata ulos tai vihreitä nuolia, niin pääset viereisille kartoille.


METAR-TAF: